sensor_id;sensor_type;location;lat;lon;timestamp;temperature;humidity
70089;HTU21D;57460;47.134;19.888;2023-05-16T00:00:28;16.72;77.78
70089;HTU21D;57460;47.134;19.888;2023-05-16T00:03:00;16.76;77.41
70089;HTU21D;57460;47.134;19.888;2023-05-16T00:05:27;16.78;78.00
70089;HTU21D;57460;47.134;19.888;2023-05-16T00:07:53;16.77;77.98
70089;HTU21D;57460;47.134;19.888;2023-05-16T00:10:19;16.76;77.23
70089;HTU21D;57460;47.134;19.888;2023-05-16T00:12:45;16.75;77.31
70089;HTU21D;57460;47.134;19.888;2023-05-16T00:15:12;16.76;77.37
70089;HTU21D;57460;47.134;19.888;2023-05-16T00:17:38;16.78;76.97
70089;HTU21D;57460;47.134;19.888;2023-05-16T00:20:05;16.77;77.34
70089;HTU21D;57460;47.134;19.888;2023-05-16T00:22:36;16.78;77.22
70089;HTU21D;57460;47.134;19.888;2023-05-16T00:25:02;16.82;77.60
70089;HTU21D;57460;47.134;19.888;2023-05-16T00:27:29;16.85;77.41
70089;HTU21D;57460;47.134;19.888;2023-05-16T00:29:55;16.88;77.27
70089;HTU21D;57460;47.134;19.888;2023-05-16T00:32:21;16.89;76.82
70089;HTU21D;57460;47.134;19.888;2023-05-16T00:34:47;16.86;76.70
70089;HTU21D;57460;47.134;19.888;2023-05-16T00:37:13;16.77;77.47
70089;HTU21D;57460;47.134;19.888;2023-05-16T00:39:39;16.75;77.51
70089;HTU21D;57460;47.134;19.888;2023-05-16T00:42:06;16.77;77.09
70089;HTU21D;57460;47.134;19.888;2023-05-16T00:44:32;16.80;77.47
70089;HTU21D;57460;47.134;19.888;2023-05-16T00:46:58;16.85;76.89
70089;HTU21D;57460;47.134;19.888;2023-05-16T00:49:25;16.95;75.57
70089;HTU21D;57460;47.134;19.888;2023-05-16T00:51:52;16.93;75.63
70089;HTU21D;57460;47.134;19.888;2023-05-16T00:54:22;16.80;78.33
70089;HTU21D;57460;47.134;19.888;2023-05-16T00:56:51;16.76;78.01
70089;HTU21D;57460;47.134;19.888;2023-05-16T00:59:18;16.67;78.34
70089;HTU21D;57460;47.134;19.888;2023-05-16T01:01:45;16.57;78.68
70089;HTU21D;57460;47.134;19.888;2023-05-16T01:04:14;16.57;79.01
70089;HTU21D;57460;47.134;19.888;2023-05-16T01:06:41;16.66;77.26
70089;HTU21D;57460;47.134;19.888;2023-05-16T01:09:07;16.72;77.41
70089;HTU21D;57460;47.134;19.888;2023-05-16T01:11:49;16.75;78.08
70089;HTU21D;57460;47.134;19.888;2023-05-16T01:22:28;16.44;79.99
70089;HTU21D;57460;47.134;19.888;2023-05-16T01:27:39;16.27;79.07
70089;HTU21D;57460;47.134;19.888;2023-05-16T01:30:17;16.32;79.76
70089;HTU21D;57460;47.134;19.888;2023-05-16T01:32:43;16.37;79.56
70089;HTU21D;57460;47.134;19.888;2023-05-16T01:35:13;16.39;80.02
70089;HTU21D;57460;47.134;19.888;2023-05-16T01:37:48;16.42;78.45
70089;HTU21D;57460;47.134;19.888;2023-05-16T01:42:55;16.54;78.82
70089;HTU21D;57460;47.134;19.888;2023-05-16T01:45:31;16.56;78.26
70089;HTU21D;57460;47.134;19.888;2023-05-16T01:48:09;16.57;77.88
70089;HTU21D;57460;47.134;19.888;2023-05-16T01:50:46;16.57;77.68
70089;HTU21D;57460;47.134;19.888;2023-05-16T01:53:21;16.55;77.69
70089;HTU21D;57460;47.134;19.888;2023-05-16T01:55:51;16.60;76.89
70089;HTU21D;57460;47.134;19.888;2023-05-16T01:58:20;16.64;76.89
70089;HTU21D;57460;47.134;19.888;2023-05-16T02:00:46;16.64;76.55
70089;HTU21D;57460;47.134;19.888;2023-05-16T02:03:12;16.63;77.21
70089;HTU21D;57460;47.134;19.888;2023-05-16T02:05:38;16.61;77.24
70089;HTU21D;57460;47.134;19.888;2023-05-16T02:08:04;16.57;77.37
70089;HTU21D;57460;47.134;19.888;2023-05-16T02:10:30;16.52;77.77
70089;HTU21D;57460;47.134;19.888;2023-05-16T02:12:56;16.48;77.94
70089;HTU21D;57460;47.134;19.888;2023-05-16T02:15:22;16.44;78.25
70089;HTU21D;57460;47.134;19.888;2023-05-16T02:17:48;16.39;78.10
70089;HTU21D;57460;47.134;19.888;2023-05-16T02:20:14;16.44;77.56
70089;HTU21D;57460;47.134;19.888;2023-05-16T02:22:40;16.48;77.22
70089;HTU21D;57460;47.134;19.888;2023-05-16T02:25:09;16.49;77.67
70089;HTU21D;57460;47.134;19.888;2023-05-16T02:27:35;16.46;77.73
70089;HTU21D;57460;47.134;19.888;2023-05-16T02:30:01;16.30;78.05
70089;HTU21D;57460;47.134;19.888;2023-05-16T02:32:27;16.26;78.40
70089;HTU21D;57460;47.134;19.888;2023-05-16T02:34:53;16.25;78.67
70089;HTU21D;57460;47.134;19.888;2023-05-16T02:37:18;16.26;78.69
70089;HTU21D;57460;47.134;19.888;2023-05-16T02:39:44;16.25;78.66
70089;HTU21D;57460;47.134;19.888;2023-05-16T02:42:10;16.24;78.42
70089;HTU21D;57460;47.134;19.888;2023-05-16T02:44:36;16.21;78.46
70089;HTU21D;57460;47.134;19.888;2023-05-16T02:47:01;16.15;78.44
70089;HTU21D;57460;47.134;19.888;2023-05-16T02:49:27;16.08;79.02
70089;HTU21D;57460;47.134;19.888;2023-05-16T02:51:53;16.10;78.79
70089;HTU21D;57460;47.134;19.888;2023-05-16T02:54:19;16.08;78.65
70089;HTU21D;57460;47.134;19.888;2023-05-16T02:56:45;16.07;78.85
70089;HTU21D;57460;47.134;19.888;2023-05-16T02:59:11;16.00;79.48
70089;HTU21D;57460;47.134;19.888;2023-05-16T03:01:37;15.91;79.56
70089;HTU21D;57460;47.134;19.888;2023-05-16T03:04:03;15.92;79.26
70089;HTU21D;57460;47.134;19.888;2023-05-16T03:06:29;15.93;79.50
70089;HTU21D;57460;47.134;19.888;2023-05-16T03:08:55;15.95;79.15
70089;HTU21D;57460;47.134;19.888;2023-05-16T03:11:21;15.92;79.29
70089;HTU21D;57460;47.134;19.888;2023-05-16T03:13:48;15.95;78.85
70089;HTU21D;57460;47.134;19.888;2023-05-16T03:16:14;15.91;78.89
70089;HTU21D;57460;47.134;19.888;2023-05-16T03:18:41;15.88;79.14
70089;HTU21D;57460;47.134;19.888;2023-05-16T03:21:07;15.89;79.14
70089;HTU21D;57460;47.134;19.888;2023-05-16T03:23:33;15.90;79.14
70089;HTU21D;57460;47.134;19.888;2023-05-16T03:25:59;15.92;79.32
70089;HTU21D;57460;47.134;19.888;2023-05-16T03:28:26;15.95;79.01
70089;HTU21D;57460;47.134;19.888;2023-05-16T03:30:51;15.98;79.02
70089;HTU21D;57460;47.134;19.888;2023-05-16T03:33:17;16.02;78.83
70089;HTU21D;57460;47.134;19.888;2023-05-16T03:35:44;16.03;79.03
70089;HTU21D;57460;47.134;19.888;2023-05-16T03:38:11;16.04;78.66
70089;HTU21D;57460;47.134;19.888;2023-05-16T03:40:38;16.07;78.43
70089;HTU21D;57460;47.134;19.888;2023-05-16T03:43:03;16.06;78.67
70089;HTU21D;57460;47.134;19.888;2023-05-16T03:45:30;16.05;78.75
70089;HTU21D;57460;47.134;19.888;2023-05-16T03:47:56;16.05;78.90
70089;HTU21D;57460;47.134;19.888;2023-05-16T03:50:22;16.07;78.73
70089;HTU21D;57460;47.134;19.888;2023-05-16T03:52:48;16.07;79.25
70089;HTU21D;57460;47.134;19.888;2023-05-16T03:55:14;16.05;79.21
70089;HTU21D;57460;47.134;19.888;2023-05-16T03:57:41;16.06;79.28
70089;HTU21D;57460;47.134;19.888;2023-05-16T04:00:08;16.06;79.37
70089;HTU21D;57460;47.134;19.888;2023-05-16T04:02:35;16.04;79.51
70089;HTU21D;57460;47.134;19.888;2023-05-16T04:05:01;16.07;79.33
70089;HTU21D;57460;47.134;19.888;2023-05-16T04:07:27;16.13;79.39
70089;HTU21D;57460;47.134;19.888;2023-05-16T04:09:53;16.13;79.27
70089;HTU21D;57460;47.134;19.888;2023-05-16T04:12:20;16.16;78.65
70089;HTU21D;57460;47.134;19.888;2023-05-16T04:14:46;16.20;79.11
70089;HTU21D;57460;47.134;19.888;2023-05-16T04:17:11;16.24;78.74
70089;HTU21D;57460;47.134;19.888;2023-05-16T04:19:37;16.26;78.98
70089;HTU21D;57460;47.134;19.888;2023-05-16T04:22:03;16.27;78.99
70089;HTU21D;57460;47.134;19.888;2023-05-16T04:24:29;16.28;78.72
70089;HTU21D;57460;47.134;19.888;2023-05-16T04:26:55;16.31;78.63
70089;HTU21D;57460;47.134;19.888;2023-05-16T04:29:21;16.29;78.90
70089;HTU21D;57460;47.134;19.888;2023-05-16T04:31:48;16.33;78.57
70089;HTU21D;57460;47.134;19.888;2023-05-16T04:34:13;16.35;79.01
70089;HTU21D;57460;47.134;19.888;2023-05-16T04:36:40;16.36;79.41
70089;HTU21D;57460;47.134;19.888;2023-05-16T04:39:08;16.41;78.85
70089;HTU21D;57460;47.134;19.888;2023-05-16T04:41:34;16.43;79.28
70089;HTU21D;57460;47.134;19.888;2023-05-16T04:44:03;16.46;79.46
70089;HTU21D;57460;47.134;19.888;2023-05-16T04:46:30;16.45;78.97
70089;HTU21D;57460;47.134;19.888;2023-05-16T04:48:56;16.49;78.98
70089;HTU21D;57460;47.134;19.888;2023-05-16T04:51:22;16.51;79.20
70089;HTU21D;57460;47.134;19.888;2023-05-16T04:53:48;16.51;79.43
70089;HTU21D;57460;47.134;19.888;2023-05-16T04:56:13;16.57;79.15
70089;HTU21D;57460;47.134;19.888;2023-05-16T04:58:39;16.59;79.54
70089;HTU21D;57460;47.134;19.888;2023-05-16T05:01:05;16.60;78.37
70089;HTU21D;57460;47.134;19.888;2023-05-16T05:03:31;16.55;79.57
70089;HTU21D;57460;47.134;19.888;2023-05-16T05:05:57;16.47;79.49
70089;HTU21D;57460;47.134;19.888;2023-05-16T05:08:22;16.46;79.50
70089;HTU21D;57460;47.134;19.888;2023-05-16T05:10:48;16.46;79.78
70089;HTU21D;57460;47.134;19.888;2023-05-16T05:13:14;16.48;79.75
70089;HTU21D;57460;47.134;19.888;2023-05-16T05:15:40;16.47;79.69
70089;HTU21D;57460;47.134;19.888;2023-05-16T05:18:06;16.45;79.36
70089;HTU21D;57460;47.134;19.888;2023-05-16T05:20:32;16.36;81.04
70089;HTU21D;57460;47.134;19.888;2023-05-16T05:22:58;16.34;80.68
70089;HTU21D;57460;47.134;19.888;2023-05-16T05:25:24;16.37;79.60
70089;HTU21D;57460;47.134;19.888;2023-05-16T05:27:49;16.28;81.20
70089;HTU21D;57460;47.134;19.888;2023-05-16T05:30:18;16.16;82.18
70089;HTU21D;57460;47.134;19.888;2023-05-16T05:32:44;16.15;80.85
70089;HTU21D;57460;47.134;19.888;2023-05-16T05:35:10;16.15;80.77
70089;HTU21D;57460;47.134;19.888;2023-05-16T05:37:36;16.21;80.65
70089;HTU21D;57460;47.134;19.888;2023-05-16T05:40:01;16.22;81.07
70089;HTU21D;57460;47.134;19.888;2023-05-16T05:42:28;16.22;82.03
70089;HTU21D;57460;47.134;19.888;2023-05-16T05:44:54;16.21;82.37
70089;HTU21D;57460;47.134;19.888;2023-05-16T05:47:20;16.25;81.14
70089;HTU21D;57460;47.134;19.888;2023-05-16T05:49:46;16.28;81.23
70089;HTU21D;57460;47.134;19.888;2023-05-16T05:52:12;16.36;80.57
70089;HTU21D;57460;47.134;19.888;2023-05-16T05:54:38;16.35;82.20
70089;HTU21D;57460;47.134;19.888;2023-05-16T05:57:04;16.31;82.03
70089;HTU21D;57460;47.134;19.888;2023-05-16T05:59:30;16.34;81.74
70089;HTU21D;57460;47.134;19.888;2023-05-16T06:01:55;16.42;80.42
70089;HTU21D;57460;47.134;19.888;2023-05-16T06:04:22;16.45;80.95
70089;HTU21D;57460;47.134;19.888;2023-05-16T06:06:48;16.49;80.98
70089;HTU21D;57460;47.134;19.888;2023-05-16T06:09:16;16.52;81.26
70089;HTU21D;57460;47.134;19.888;2023-05-16T06:11:42;16.56;81.25
70089;HTU21D;57460;47.134;19.888;2023-05-16T06:14:10;16.59;81.43
70089;HTU21D;57460;47.134;19.888;2023-05-16T06:16:36;16.58;81.03
70089;HTU21D;57460;47.134;19.888;2023-05-16T06:19:03;16.61;80.98
70089;HTU21D;57460;47.134;19.888;2023-05-16T06:21:29;16.66;81.07
70089;HTU21D;57460;47.134;19.888;2023-05-16T06:23:55;16.70;81.01
70089;HTU21D;57460;47.134;19.888;2023-05-16T06:26:24;16.72;81.34
70089;HTU21D;57460;47.134;19.888;2023-05-16T06:28:50;16.74;80.31
70089;HTU21D;57460;47.134;19.888;2023-05-16T06:31:16;16.74;81.32
70089;HTU21D;57460;47.134;19.888;2023-05-16T06:33:41;16.73;81.97
70089;HTU21D;57460;47.134;19.888;2023-05-16T06:36:07;16.70;81.56
70089;HTU21D;57460;47.134;19.888;2023-05-16T06:38:33;16.72;81.56
70089;HTU21D;57460;47.134;19.888;2023-05-16T06:40:59;16.77;81.13
70089;HTU21D;57460;47.134;19.888;2023-05-16T06:43:24;16.84;81.01
70089;HTU21D;57460;47.134;19.888;2023-05-16T06:45:50;16.87;81.31
70089;HTU21D;57460;47.134;19.888;2023-05-16T06:48:17;16.93;81.14
70089;HTU21D;57460;47.134;19.888;2023-05-16T06:50:48;16.93;80.40
70089;HTU21D;57460;47.134;19.888;2023-05-16T06:53:14;16.93;80.11
70089;HTU21D;57460;47.134;19.888;2023-05-16T06:55:39;16.95;79.94
70089;HTU21D;57460;47.134;19.888;2023-05-16T06:58:05;16.99;79.46
70089;HTU21D;57460;47.134;19.888;2023-05-16T07:00:31;17.00;79.64
70089;HTU21D;57460;47.134;19.888;2023-05-16T07:02:57;16.99;81.27
70089;HTU21D;57460;47.134;19.888;2023-05-16T07:05:22;17.00;80.49
70089;HTU21D;57460;47.134;19.888;2023-05-16T07:07:48;17.03;80.17
70089;HTU21D;57460;47.134;19.888;2023-05-16T07:10:14;17.04;81.08
70089;HTU21D;57460;47.134;19.888;2023-05-16T07:12:41;17.10;79.35
70089;HTU21D;57460;47.134;19.888;2023-05-16T07:15:08;17.07;80.29
70089;HTU21D;57460;47.134;19.888;2023-05-16T07:17:34;17.07;79.91
70089;HTU21D;57460;47.134;19.888;2023-05-16T07:19:59;17.14;79.94
70089;HTU21D;57460;47.134;19.888;2023-05-16T07:22:25;17.18;79.53
70089;HTU21D;57460;47.134;19.888;2023-05-16T07:24:51;17.18;79.69
70089;HTU21D;57460;47.134;19.888;2023-05-16T07:27:21;17.14;81.28
70089;HTU21D;57460;47.134;19.888;2023-05-16T07:29:47;17.15;80.32
70089;HTU21D;57460;47.134;19.888;2023-05-16T07:32:13;17.17;80.39
70089;HTU21D;57460;47.134;19.888;2023-05-16T07:34:39;17.13;80.85
70089;HTU21D;57460;47.134;19.888;2023-05-16T07:37:05;17.11;81.78
70089;HTU21D;57460;47.134;19.888;2023-05-16T07:39:40;17.14;80.81
70089;HTU21D;57460;47.134;19.888;2023-05-16T07:42:07;17.17;81.00
70089;HTU21D;57460;47.134;19.888;2023-05-16T07:44:33;17.17;80.31
70089;HTU21D;57460;47.134;19.888;2023-05-16T07:47:00;17.16;80.31
70089;HTU21D;57460;47.134;19.888;2023-05-16T07:49:26;17.14;81.39
70089;HTU21D;57460;47.134;19.888;2023-05-16T07:51:52;17.13;81.28
70089;HTU21D;57460;47.134;19.888;2023-05-16T07:54:18;17.18;80.01
70089;HTU21D;57460;47.134;19.888;2023-05-16T07:56:44;17.18;80.56
70089;HTU21D;57460;47.134;19.888;2023-05-16T07:59:09;17.17;81.40
70089;HTU21D;57460;47.134;19.888;2023-05-16T08:01:36;17.20;80.85
70089;HTU21D;57460;47.134;19.888;2023-05-16T08:04:02;17.24;80.82
70089;HTU21D;57460;47.134;19.888;2023-05-16T08:06:27;17.31;80.48
70089;HTU21D;57460;47.134;19.888;2023-05-16T08:08:54;17.36;80.16
70089;HTU21D;57460;47.134;19.888;2023-05-16T08:11:20;17.37;80.59
70089;HTU21D;57460;47.134;19.888;2023-05-16T08:13:49;17.37;81.87
70089;HTU21D;57460;47.134;19.888;2023-05-16T08:16:15;17.39;81.21
70089;HTU21D;57460;47.134;19.888;2023-05-16T08:18:41;17.43;81.61
70089;HTU21D;57460;47.134;19.888;2023-05-16T08:21:07;17.47;80.88
70089;HTU21D;57460;47.134;19.888;2023-05-16T08:23:37;17.49;80.43
70089;HTU21D;57460;47.134;19.888;2023-05-16T08:26:03;17.51;80.38
70089;HTU21D;57460;47.134;19.888;2023-05-16T08:28:29;17.50;80.44
70089;HTU21D;57460;47.134;19.888;2023-05-16T08:30:55;17.49;80.34
70089;HTU21D;57460;47.134;19.888;2023-05-16T08:33:21;17.51;80.97
70089;HTU21D;57460;47.134;19.888;2023-05-16T08:35:47;17.50;81.61
70089;HTU21D;57460;47.134;19.888;2023-05-16T08:38:18;17.54;80.65
70089;HTU21D;57460;47.134;19.888;2023-05-16T08:40:45;17.58;80.85
70089;HTU21D;57460;47.134;19.888;2023-05-16T08:43:11;17.68;79.82
70089;HTU21D;57460;47.134;19.888;2023-05-16T08:45:37;17.67;80.25
70089;HTU21D;57460;47.134;19.888;2023-05-16T08:48:06;17.73;80.47
70089;HTU21D;57460;47.134;19.888;2023-05-16T08:50:32;17.74;80.07
70089;HTU21D;57460;47.134;19.888;2023-05-16T08:53:04;17.80;79.22
70089;HTU21D;57460;47.134;19.888;2023-05-16T08:55:34;17.76;80.28
70089;HTU21D;57460;47.134;19.888;2023-05-16T08:58:00;17.74;80.96
70089;HTU21D;57460;47.134;19.888;2023-05-16T09:00:27;17.76;80.28
70089;HTU21D;57460;47.134;19.888;2023-05-16T09:02:53;17.77;80.59
70089;HTU21D;57460;47.134;19.888;2023-05-16T09:05:21;17.79;80.87
70089;HTU21D;57460;47.134;19.888;2023-05-16T09:07:47;17.81;80.49
70089;HTU21D;57460;47.134;19.888;2023-05-16T09:10:13;17.84;81.24
70089;HTU21D;57460;47.134;19.888;2023-05-16T09:12:40;17.92;81.38
70089;HTU21D;57460;47.134;19.888;2023-05-16T09:15:08;18.00;80.65
70089;HTU21D;57460;47.134;19.888;2023-05-16T09:17:36;18.06;80.32
70089;HTU21D;57460;47.134;19.888;2023-05-16T09:20:11;18.12;79.68
70089;HTU21D;57460;47.134;19.888;2023-05-16T09:22:38;18.12;79.69
70089;HTU21D;57460;47.134;19.888;2023-05-16T09:25:04;18.13;79.43
70089;HTU21D;57460;47.134;19.888;2023-05-16T09:27:31;18.20;79.83
70089;HTU21D;57460;47.134;19.888;2023-05-16T09:29:58;18.23;79.63
70089;HTU21D;57460;47.134;19.888;2023-05-16T09:32:24;18.29;79.90
70089;HTU21D;57460;47.134;19.888;2023-05-16T09:34:52;18.35;79.81
70089;HTU21D;57460;47.134;19.888;2023-05-16T09:37:19;18.39;79.17
70089;HTU21D;57460;47.134;19.888;2023-05-16T09:39:50;18.41;79.33
70089;HTU21D;57460;47.134;19.888;2023-05-16T09:42:18;18.42;78.94
70089;HTU21D;57460;47.134;19.888;2023-05-16T09:44:50;18.44;78.71
70089;HTU21D;57460;47.134;19.888;2023-05-16T09:47:17;18.40;79.27
70089;HTU21D;57460;47.134;19.888;2023-05-16T09:49:45;18.39;79.43
70089;HTU21D;57460;47.134;19.888;2023-05-16T09:52:13;18.38;79.10
70089;HTU21D;57460;47.134;19.888;2023-05-16T09:54:40;18.33;79.14
70089;HTU21D;57460;47.134;19.888;2023-05-16T09:57:06;18.32;79.53
70089;HTU21D;57460;47.134;19.888;2023-05-16T09:59:36;18.33;78.91
70089;HTU21D;57460;47.134;19.888;2023-05-16T10:02:04;18.32;79.14
70089;HTU21D;57460;47.134;19.888;2023-05-16T10:04:30;18.29;79.72
70089;HTU21D;57460;47.134;19.888;2023-05-16T10:07:04;18.33;79.82
70089;HTU21D;57460;47.134;19.888;2023-05-16T10:09:32;18.39;79.62
70089;HTU21D;57460;47.134;19.888;2023-05-16T10:12:01;18.41;79.61
70089;HTU21D;57460;47.134;19.888;2023-05-16T10:14:36;18.51;78.74
70089;HTU21D;57460;47.134;19.888;2023-05-16T10:17:07;18.52;79.01
70089;HTU21D;57460;47.134;19.888;2023-05-16T10:19:37;18.53;79.23
70089;HTU21D;57460;47.134;19.888;2023-05-16T10:22:05;18.63;78.65
70089;HTU21D;57460;47.134;19.888;2023-05-16T10:24:36;18.65;79.00
70089;HTU21D;57460;47.134;19.888;2023-05-16T10:27:03;18.73;79.23
70089;HTU21D;57460;47.134;19.888;2023-05-16T10:29:31;18.80;79.27
70089;HTU21D;57460;47.134;19.888;2023-05-16T10:31:58;18.83;79.01
70089;HTU21D;57460;47.134;19.888;2023-05-16T10:34:24;18.94;78.88
70089;HTU21D;57460;47.134;19.888;2023-05-16T10:36:52;19.02;78.59
70089;HTU21D;57460;47.134;19.888;2023-05-16T10:39:18;19.09;78.05
70089;HTU21D;57460;47.134;19.888;2023-05-16T10:41:45;19.13;78.21
70089;HTU21D;57460;47.134;19.888;2023-05-16T10:44:14;19.22;77.93
70089;HTU21D;57460;47.134;19.888;2023-05-16T10:46:41;19.25;77.85
70089;HTU21D;57460;47.134;19.888;2023-05-16T10:49:24;19.31;77.20
70089;HTU21D;57460;47.134;19.888;2023-05-16T10:54:38;19.25;76.97
70089;HTU21D;57460;47.134;19.888;2023-05-16T10:57:15;19.18;77.69
70089;HTU21D;57460;47.134;19.888;2023-05-16T10:59:47;19.22;77.89
70089;HTU21D;57460;47.134;19.888;2023-05-16T11:02:29;19.30;77.47
70089;HTU21D;57460;47.134;19.888;2023-05-16T11:04:59;19.41;78.56
70089;HTU21D;57460;47.134;19.888;2023-05-16T11:07:31;19.60;78.40
70089;HTU21D;57460;47.134;19.888;2023-05-16T11:10:08;19.80;76.19
70089;HTU21D;57460;47.134;19.888;2023-05-16T11:12:50;19.89;76.84
70089;HTU21D;57460;47.134;19.888;2023-05-16T11:15:23;19.99;76.07
70089;HTU21D;57460;47.134;19.888;2023-05-16T11:17:50;20.05;75.63
70089;HTU21D;57460;47.134;19.888;2023-05-16T11:20:29;20.13;75.56
70089;HTU21D;57460;47.134;19.888;2023-05-16T11:25:45;20.20;75.63
70089;HTU21D;57460;47.134;19.888;2023-05-16T11:28:12;20.27;75.22
70089;HTU21D;57460;47.134;19.888;2023-05-16T11:30:51;20.28;74.99
70089;HTU21D;57460;47.134;19.888;2023-05-16T11:33:19;20.25;75.46
70089;HTU21D;57460;47.134;19.888;2023-05-16T11:36:07;20.20;74.83
70089;HTU21D;57460;47.134;19.888;2023-05-16T11:38:34;20.16;75.44
70089;HTU21D;57460;47.134;19.888;2023-05-16T11:41:02;20.17;75.12
70089;HTU21D;57460;47.134;19.888;2023-05-16T11:43:28;20.14;75.34
70089;HTU21D;57460;47.134;19.888;2023-05-16T11:45:54;20.14;75.72
70089;HTU21D;57460;47.134;19.888;2023-05-16T11:48:24;20.13;75.50
70089;HTU21D;57460;47.134;19.888;2023-05-16T11:50:50;20.14;74.86
70089;HTU21D;57460;47.134;19.888;2023-05-16T11:53:18;20.06;75.58
70089;HTU21D;57460;47.134;19.888;2023-05-16T11:55:44;20.09;75.66
70089;HTU21D;57460;47.134;19.888;2023-05-16T11:58:17;20.11;75.59
70089;HTU21D;57460;47.134;19.888;2023-05-16T12:00:50;20.13;74.83
70089;HTU21D;57460;47.134;19.888;2023-05-16T12:03:19;20.11;74.96
70089;HTU21D;57460;47.134;19.888;2023-05-16T12:05:53;20.13;75.60
70089;HTU21D;57460;47.134;19.888;2023-05-16T12:08:20;20.11;75.80
70089;HTU21D;57460;47.134;19.888;2023-05-16T12:10:52;20.07;74.97
70089;HTU21D;57460;47.134;19.888;2023-05-16T12:13:22;20.06;75.99
70089;HTU21D;57460;47.134;19.888;2023-05-16T12:15:50;20.11;75.45
70089;HTU21D;57460;47.134;19.888;2023-05-16T12:18:17;20.16;74.80
70089;HTU21D;57460;47.134;19.888;2023-05-16T12:20:44;20.13;75.19
70089;HTU21D;57460;47.134;19.888;2023-05-16T12:23:13;20.16;74.98
70089;HTU21D;57460;47.134;19.888;2023-05-16T12:25:44;20.09;75.05
70089;HTU21D;57460;47.134;19.888;2023-05-16T12:28:12;20.04;75.31
70089;HTU21D;57460;47.134;19.888;2023-05-16T12:30:43;19.98;74.72
70089;HTU21D;57460;47.134;19.888;2023-05-16T12:33:14;19.95;75.18
70089;HTU21D;57460;47.134;19.888;2023-05-16T12:35:43;19.89;75.50
70089;HTU21D;57460;47.134;19.888;2023-05-16T12:38:14;19.87;75.54
70089;HTU21D;57460;47.134;19.888;2023-05-16T12:40:42;19.84;75.55
70089;HTU21D;57460;47.134;19.888;2023-05-16T12:43:16;19.75;75.92
70089;HTU21D;57460;47.134;19.888;2023-05-16T12:45:55;19.68;76.32
70089;HTU21D;57460;47.134;19.888;2023-05-16T12:48:23;19.63;76.03
70089;HTU21D;57460;47.134;19.888;2023-05-16T12:50:49;19.60;76.23
70089;HTU21D;57460;47.134;19.888;2023-05-16T12:53:17;19.54;76.53
70089;HTU21D;57460;47.134;19.888;2023-05-16T12:55:43;19.50;76.51
70089;HTU21D;57460;47.134;19.888;2023-05-16T12:58:10;19.44;76.79
70089;HTU21D;57460;47.134;19.888;2023-05-16T13:00:36;19.41;77.21
70089;HTU21D;57460;47.134;19.888;2023-05-16T13:03:04;19.41;77.69
70089;HTU21D;57460;47.134;19.888;2023-05-16T13:05:30;19.46;76.80
70089;HTU21D;57460;47.134;19.888;2023-05-16T13:07:56;19.38;77.73
70089;HTU21D;57460;47.134;19.888;2023-05-16T13:10:22;19.31;78.06
70089;HTU21D;57460;47.134;19.888;2023-05-16T13:12:50;19.36;76.94
70089;HTU21D;57460;47.134;19.888;2023-05-16T13:15:16;19.29;77.28
70089;HTU21D;57460;47.134;19.888;2023-05-16T13:17:42;19.33;76.95
70089;HTU21D;57460;47.134;19.888;2023-05-16T13:20:09;19.28;78.05
70089;HTU21D;57460;47.134;19.888;2023-05-16T13:22:38;19.33;77.92
70089;HTU21D;57460;47.134;19.888;2023-05-16T13:25:04;19.37;77.17
70089;HTU21D;57460;47.134;19.888;2023-05-16T13:27:31;19.32;77.47
70089;HTU21D;57460;47.134;19.888;2023-05-16T13:29:57;19.31;77.27
70089;HTU21D;57460;47.134;19.888;2023-05-16T13:32:24;19.21;78.18
70089;HTU21D;57460;47.134;19.888;2023-05-16T13:34:50;19.21;78.13
70089;HTU21D;57460;47.134;19.888;2023-05-16T13:37:17;19.18;77.58
70089;HTU21D;57460;47.134;19.888;2023-05-16T13:39:43;19.15;78.07
70089;HTU21D;57460;47.134;19.888;2023-05-16T13:42:09;19.18;77.88
70089;HTU21D;57460;47.134;19.888;2023-05-16T13:44:35;19.24;78.37
70089;HTU21D;57460;47.134;19.888;2023-05-16T13:47:01;19.28;77.88
70089;HTU21D;57460;47.134;19.888;2023-05-16T13:49:27;19.26;77.95
70089;HTU21D;57460;47.134;19.888;2023-05-16T13:51:53;19.32;77.45
70089;HTU21D;57460;47.134;19.888;2023-05-16T13:54:20;19.31;77.79
70089;HTU21D;57460;47.134;19.888;2023-05-16T13:56:47;19.38;77.04
70089;HTU21D;57460;47.134;19.888;2023-05-16T13:59:13;19.35;77.68
70089;HTU21D;57460;47.134;19.888;2023-05-16T14:01:39;19.35;77.87
70089;HTU21D;57460;47.134;19.888;2023-05-16T14:04:06;19.39;76.89
70089;HTU21D;57460;47.134;19.888;2023-05-16T14:06:32;19.39;77.37
70089;HTU21D;57460;47.134;19.888;2023-05-16T14:08:58;19.40;77.07
70089;HTU21D;57460;47.134;19.888;2023-05-16T14:11:23;19.40;77.66
70089;HTU21D;57460;47.134;19.888;2023-05-16T14:13:55;19.42;78.14
70089;HTU21D;57460;47.134;19.888;2023-05-16T14:16:21;19.42;78.23
70089;HTU21D;57460;47.134;19.888;2023-05-16T14:18:47;19.45;77.58
70089;HTU21D;57460;47.134;19.888;2023-05-16T14:21:13;19.52;77.30
70089;HTU21D;57460;47.134;19.888;2023-05-16T14:23:39;19.50;77.29
70089;HTU21D;57460;47.134;19.888;2023-05-16T14:26:05;19.50;77.57
70089;HTU21D;57460;47.134;19.888;2023-05-16T14:28:31;19.53;77.04
70089;HTU21D;57460;47.134;19.888;2023-05-16T14:31:00;19.53;77.08
70089;HTU21D;57460;47.134;19.888;2023-05-16T14:33:26;19.55;77.35
70089;HTU21D;57460;47.134;19.888;2023-05-16T14:35:52;19.57;77.63
70089;HTU21D;57460;47.134;19.888;2023-05-16T14:38:18;19.62;77.08
70089;HTU21D;57460;47.134;19.888;2023-05-16T14:40:45;19.68;77.37
70089;HTU21D;57460;47.134;19.888;2023-05-16T14:43:12;19.67;77.25
70089;HTU21D;57460;47.134;19.888;2023-05-16T14:45:38;19.70;77.08
70089;HTU21D;57460;47.134;19.888;2023-05-16T14:48:07;19.68;77.98
70089;HTU21D;57460;47.134;19.888;2023-05-16T14:50:33;19.68;77.53
70089;HTU21D;57460;47.134;19.888;2023-05-16T14:52:59;19.73;76.82
70089;HTU21D;57460;47.134;19.888;2023-05-16T14:55:25;19.70;77.08
70089;HTU21D;57460;47.134;19.888;2023-05-16T14:57:51;19.68;77.84
70089;HTU21D;57460;47.134;19.888;2023-05-16T15:00:22;19.72;77.55
70089;HTU21D;57460;47.134;19.888;2023-05-16T15:02:49;19.76;77.39
70089;HTU21D;57460;47.134;19.888;2023-05-16T15:05:15;19.73;77.52
70089;HTU21D;57460;47.134;19.888;2023-05-16T15:07:41;19.73;77.29
70089;HTU21D;57460;47.134;19.888;2023-05-16T15:10:08;19.73;76.76
70089;HTU21D;57460;47.134;19.888;2023-05-16T15:12:35;19.70;76.89
70089;HTU21D;57460;47.134;19.888;2023-05-16T15:15:01;19.68;77.39
70089;HTU21D;57460;47.134;19.888;2023-05-16T15:17:26;19.63;77.43
70089;HTU21D;57460;47.134;19.888;2023-05-16T15:19:52;19.62;77.49
70089;HTU21D;57460;47.134;19.888;2023-05-16T15:22:19;19.60;77.58